Rechercher aéroport 
image banner adimage banner adimage banner ad
image banner ad

5PA4 - Nesspor

Situé à Phoenixville, United States

ICAO - 5PA4, IATA -

Données fournies par Airmate  

Information générale

Coordonnées: N40°11'23" W75°36'54"
Élévation : 315 feet MSL.
 
Voir autres Aéroports à Pennsylvania

Données opérationnelles

Special qualification required
Heure actuelle UTC:
Heure actuelle locale:
Météo à : KPTW - Heritage Field ( 7 km )
METAR: KPTW 132054Z AUTO 19006KT 10SM OVC032 24/17 A2990 RMK AO2 SLP122 T02390167 56007
Voir NOTAMs / SUP AIP / TFR affectant cet aéroport [VIEW]
Fréquences de communication: [VIEW]

Pistes:

Identifiant RWYQFULongueur (ft)Largeur (ft)SurfaceLDA (ft)
161378100GRASS
341378100GRASS

Coordonnées de l'aéroport

Adresse: Phoenixville United States

Vue satellite de 5PA4